createdAt,value
2018-04-17T00:01:35.619Z,5.67
2018-04-17T00:04:03.861Z,5.43
2018-04-17T00:06:32.054Z,5.90
2018-04-17T00:09:00.304Z,5.60
2018-04-17T00:11:28.589Z,5.80
2018-04-17T00:13:56.830Z,5.80
2018-04-17T00:16:25.072Z,5.40
2018-04-17T00:18:54.040Z,5.70
2018-04-17T00:21:22.737Z,5.53
2018-04-17T00:23:51.323Z,5.00
2018-04-17T00:26:19.615Z,5.40
2018-04-17T00:28:47.858Z,5.80
2018-04-17T00:31:15.874Z,6.10
2018-04-17T00:33:44.146Z,6.23
2018-04-17T00:36:12.388Z,5.80
2018-04-17T00:38:40.827Z,6.57
2018-04-17T00:41:08.991Z,5.87
2018-04-17T00:43:37.902Z,5.87
2018-04-17T00:46:06.145Z,6.33
2018-04-17T00:48:34.276Z,5.80
2018-04-17T00:51:02.827Z,6.13
2018-04-17T00:53:42.802Z,5.73
2018-04-17T00:56:11.569Z,7.53
2018-04-17T00:58:39.612Z,8.10
2018-04-17T01:01:07.550Z,8.23
2018-04-17T01:03:35.836Z,7.80
2018-04-17T01:06:04.079Z,7.83
2018-04-17T01:08:32.321Z,8.00
2018-04-17T01:11:00.564Z,7.40
2018-04-17T01:13:28.807Z,7.07
2018-04-17T01:15:57.051Z,7.00
2018-04-17T01:18:25.248Z,6.67
2018-04-17T01:20:53.534Z,6.40
2018-04-17T01:23:21.944Z,6.10
2018-04-17T01:25:50.221Z,5.80
2018-04-17T01:28:18.457Z,6.20
2018-04-17T01:30:46.700Z,5.53
2018-04-17T01:33:14.951Z,6.07
2018-04-17T01:35:42.953Z,5.23
2018-04-17T01:38:10.995Z,5.37
2018-04-17T01:40:39.276Z,5.53
2018-04-17T01:43:07.419Z,5.63
2018-04-17T01:45:35.246Z,5.47
2018-04-17T01:48:03.180Z,4.80
2018-04-17T01:50:31.373Z,5.30
2018-04-17T01:52:59.638Z,5.20
2018-04-17T01:55:28.732Z,5.07
2018-04-17T01:57:56.975Z,5.20
2018-04-17T02:00:25.217Z,5.03
2018-04-17T02:02:53.464Z,5.23
2018-04-17T02:05:21.702Z,5.70
2018-04-17T02:07:49.866Z,5.90
2018-04-17T02:10:18.733Z,5.93
2018-04-17T02:12:46.985Z,6.20
2018-04-17T02:15:15.262Z,6.03
2018-04-17T02:17:43.505Z,5.23
2018-04-17T02:20:11.627Z,5.57
2018-04-17T02:22:39.694Z,5.90
2018-04-17T02:25:08.192Z,5.70
2018-04-17T02:27:36.578Z,6.00
2018-04-17T02:30:04.822Z,5.87
2018-04-17T02:32:32.913Z,6.50
2018-04-17T02:35:01.155Z,6.13
2018-04-17T02:37:29.397Z,6.17
2018-04-17T02:39:57.689Z,6.03
2018-04-17T02:42:25.930Z,5.87
2018-04-17T02:44:54.048Z,6.37
2018-04-17T02:47:22.094Z,5.67
2018-04-17T02:49:50.264Z,6.67
2018-04-17T02:52:18.506Z,5.90
2018-04-17T02:54:46.691Z,7.13
2018-04-17T02:57:14.597Z,6.40
2018-04-17T02:59:42.774Z,7.10
2018-04-17T03:02:11.671Z,8.17
2018-04-17T03:04:39.913Z,9.33
2018-04-17T03:07:08.158Z,8.50
2018-04-17T03:09:36.340Z,7.00
2018-04-17T03:12:04.443Z,7.40
2018-04-17T03:14:32.687Z,7.07
2018-04-17T03:17:00.867Z,7.60
2018-04-17T03:19:29.172Z,7.80
2018-04-17T03:21:57.312Z,7.37
2018-04-17T03:24:25.461Z,6.90
2018-04-17T03:26:53.703Z,6.57
2018-04-17T03:29:21.878Z,7.70
2018-04-17T03:31:50.975Z,7.70
2018-04-17T03:34:19.218Z,6.90
2018-04-17T03:36:47.404Z,7.20
2018-04-17T03:39:15.308Z,7.63
2018-04-17T03:41:43.551Z,7.57
2018-04-17T03:44:11.728Z,8.63
2018-04-17T03:46:40.498Z,8.23
2018-04-17T03:49:08.550Z,7.47
2018-04-17T03:51:36.653Z,7.80
2018-04-17T03:54:05.495Z,7.53
2018-04-17T03:56:33.791Z,8.33
2018-04-17T03:59:01.989Z,8.70
2018-04-17T04:01:30.196Z,8.67
2018-04-17T04:03:59.306Z,8.70
2018-04-17T04:06:27.549Z,7.97
2018-04-17T04:08:55.526Z,8.50
2018-04-17T04:11:24.425Z,8.47
2018-04-17T04:13:52.678Z,8.30
2018-04-17T04:16:32.524Z,8.53
2018-04-17T04:19:12.549Z,8.30
2018-04-17T04:21:52.391Z,9.33
2018-04-17T04:24:31.840Z,9.07
2018-04-17T04:26:59.838Z,9.67
2018-04-17T04:29:27.737Z,8.90
2018-04-17T04:31:55.882Z,10.77
2018-04-17T04:34:24.768Z,9.77
2018-04-17T04:36:53.054Z,9.27
2018-04-17T04:39:21.297Z,9.20
2018-04-17T04:41:49.542Z,9.00
2018-04-17T04:44:17.786Z,9.37
2018-04-17T04:46:45.929Z,8.13
2018-04-17T04:49:14.025Z,7.87
2018-04-17T04:51:42.212Z,8.07
2018-04-17T04:54:10.361Z,8.20
2018-04-17T04:56:38.356Z,8.53
2018-04-17T04:59:06.560Z,8.40
2018-04-17T05:01:34.627Z,8.37
2018-04-17T05:04:02.738Z,7.60
2018-04-17T05:06:31.765Z,8.40
2018-04-17T05:09:00.009Z,7.40
2018-04-17T05:11:28.252Z,6.87
2018-04-17T05:13:56.437Z,7.23
2018-04-17T05:16:24.680Z,7.77
2018-04-17T05:18:52.724Z,6.50
2018-04-17T05:21:21.564Z,6.60
2018-04-17T05:23:49.862Z,6.77
2018-04-17T05:26:18.102Z,6.50
2018-04-17T05:28:46.155Z,6.60
2018-04-17T05:31:14.385Z,6.37
2018-04-17T05:33:42.632Z,6.07
2018-04-17T05:36:10.817Z,6.47
2018-04-17T05:38:38.887Z,6.30
2018-04-17T05:41:07.164Z,6.30
2018-04-17T05:43:35.414Z,6.47
2018-04-17T05:46:04.385Z,6.13
2018-04-17T05:48:32.689Z,6.73
2018-04-17T05:51:01.706Z,6.50
2018-04-17T05:53:30.507Z,6.30
2018-04-17T05:55:58.734Z,6.93
2018-04-17T05:58:26.970Z,6.90
2018-04-17T06:00:55.265Z,7.13
2018-04-17T06:03:23.268Z,6.70
2018-04-17T06:05:51.554Z,6.07
2018-04-17T06:08:19.601Z,6.07
2018-04-17T06:10:48.236Z,6.70
2018-04-17T06:13:16.423Z,7.17
2018-04-17T06:15:44.639Z,6.10
2018-04-17T06:18:12.963Z,5.43
2018-04-17T06:20:41.214Z,6.77
2018-04-17T06:23:09.448Z,6.73
2018-04-17T06:25:37.695Z,6.17
2018-04-17T06:28:05.876Z,6.70
2018-04-17T06:30:34.177Z,6.33
2018-04-17T06:33:02.359Z,6.13
2018-04-17T06:35:30.578Z,5.80
2018-04-17T06:37:58.472Z,5.60
2018-04-17T06:40:26.635Z,5.53
2018-04-17T06:42:54.998Z,5.93
2018-04-17T06:45:22.995Z,5.67
2018-04-17T06:47:51.283Z,5.50
2018-04-17T06:50:19.525Z,5.30
2018-04-17T06:52:47.702Z,5.70
2018-04-17T06:55:15.913Z,5.30
2018-04-17T06:57:44.057Z,5.40
2018-04-17T07:00:12.299Z,4.77
2018-04-17T07:02:40.542Z,5.13
2018-04-17T07:05:08.552Z,5.67
2018-04-17T07:07:36.587Z,5.20
2018-04-17T07:10:04.819Z,5.10
2018-04-17T07:12:33.118Z,5.33
2018-04-17T07:15:02.678Z,5.23
2018-04-17T07:17:30.980Z,5.13
2018-04-17T07:19:59.812Z,4.77
2018-04-17T07:22:28.055Z,5.43
2018-04-17T07:24:56.298Z,5.50
2018-04-17T07:27:24.198Z,5.90
2018-04-17T07:29:52.330Z,5.60
2018-04-17T07:32:20.633Z,4.80
2018-04-17T07:34:48.873Z,4.40
2018-04-17T07:37:17.117Z,4.90
2018-04-17T07:39:45.362Z,5.10
2018-04-17T07:42:14.388Z,4.53
2018-04-17T07:44:42.440Z,4.63
2018-04-17T07:47:22.706Z,4.67
2018-04-17T07:49:50.680Z,4.00
2018-04-17T07:52:18.958Z,4.93
2018-04-17T07:54:47.156Z,4.97
2018-04-17T07:57:15.346Z,4.37
2018-04-17T07:59:43.437Z,5.53
2018-04-17T08:02:11.732Z,5.40
2018-04-17T08:04:39.675Z,5.10
2018-04-17T08:07:07.766Z,5.13
2018-04-17T08:09:35.823Z,4.63
2018-04-17T08:12:04.003Z,5.40
2018-04-17T08:14:32.093Z,2.90
2018-04-17T08:17:00.935Z,4.78
2018-04-17T08:19:29.339Z,4.95
2018-04-17T08:21:57.281Z,3.50
2018-04-17T08:24:25.461Z,4.30
2018-04-17T08:26:53.681Z,3.62
2018-04-17T08:29:21.614Z,3.75
2018-04-17T08:31:49.766Z,4.00
2018-04-17T08:34:17.901Z,3.70
2018-04-17T08:36:46.151Z,4.57
2018-04-17T08:39:14.931Z,4.12
2018-04-17T08:41:42.825Z,3.53
2018-04-17T08:44:10.835Z,4.45
2018-04-17T08:46:39.113Z,4.30
2018-04-17T08:49:07.538Z,4.95
2018-04-17T08:51:35.954Z,4.90
2018-04-17T08:54:04.197Z,4.72
2018-04-17T08:56:32.477Z,4.50
2018-04-17T08:59:00.491Z,5.37
2018-04-17T09:01:28.701Z,4.55
2018-04-17T09:03:57.013Z,4.53
2018-04-17T09:06:25.249Z,4.28
2018-04-17T09:08:53.498Z,5.37
2018-04-17T09:11:21.742Z,4.82
2018-04-17T09:13:49.913Z,4.70
2018-04-17T09:16:18.958Z,4.45
2018-04-17T09:18:47.248Z,5.28
2018-04-17T09:21:15.500Z,5.35
2018-04-17T09:23:44.687Z,5.30
2018-04-17T09:26:12.850Z,4.30
2018-04-17T09:28:40.808Z,4.70
2018-04-17T09:31:08.988Z,4.20
2018-04-17T09:33:37.690Z,4.45
2018-04-17T09:36:05.889Z,4.20
2018-04-17T09:38:33.913Z,5.05
2018-04-17T09:41:02.956Z,4.32
2018-04-17T09:43:31.247Z,4.03
2018-04-17T09:45:59.490Z,4.65
2018-04-17T09:48:27.732Z,4.97
2018-04-17T09:50:55.974Z,4.10
2018-04-17T09:53:24.143Z,4.32
2018-04-17T09:55:53.246Z,4.22
2018-04-17T09:58:21.300Z,3.80
2018-04-17T10:00:55.040Z,4.00
2018-04-17T10:03:23.289Z,4.32
2018-04-17T10:05:52.079Z,3.53
2018-04-17T10:10:54.005Z,3.45
2018-04-17T10:13:22.152Z,3.12
2018-04-17T10:15:51.179Z,3.40
2018-04-17T10:18:19.421Z,3.00
2018-04-17T10:20:47.479Z,3.25
2018-04-17T10:23:15.483Z,3.22
2018-04-17T10:25:43.757Z,3.55
2018-04-17T10:28:12.313Z,3.25
2018-04-17T10:30:41.180Z,3.75
2018-04-17T10:33:09.473Z,3.65
2018-04-17T10:35:37.709Z,3.40
2018-04-17T10:38:06.744Z,3.20
2018-04-17T10:40:34.855Z,2.90
2018-04-17T10:43:03.026Z,3.67
2018-04-17T10:45:31.210Z,3.47
2018-04-17T10:47:59.452Z,3.40
2018-04-17T10:50:27.758Z,3.50
2018-04-17T10:52:55.761Z,3.37
2018-04-17T10:55:23.930Z,3.72
2018-04-17T10:57:52.023Z,3.37
2018-04-17T11:00:21.708Z,3.08
2018-04-17T11:02:50.661Z,3.45
2018-04-17T11:05:19.525Z,3.70
2018-04-17T11:07:47.819Z,3.50
2018-04-17T11:10:15.825Z,3.40
2018-04-17T11:12:44.100Z,3.90
2018-04-17T11:15:12.345Z,3.33
2018-04-17T11:17:40.338Z,3.43
2018-04-17T11:20:08.555Z,3.37
2018-04-17T11:22:37.463Z,3.43
2018-04-17T11:25:05.705Z,3.33
2018-04-17T11:27:33.947Z,3.37
2018-04-17T11:30:02.191Z,3.40
2018-04-17T11:32:30.343Z,3.20
2018-04-17T11:34:58.435Z,3.23
2018-04-17T11:37:26.679Z,3.17
2018-04-17T11:39:54.963Z,3.20
2018-04-17T11:42:23.207Z,3.63
2018-04-17T11:44:51.405Z,3.00
2018-04-17T11:47:19.601Z,3.62
2018-04-17T11:49:47.639Z,3.40
2018-04-17T11:52:15.554Z,3.20
2018-04-17T11:54:43.731Z,2.63
2018-04-17T11:57:12.470Z,2.83
2018-04-17T11:59:40.476Z,3.00
2018-04-17T12:02:08.528Z,3.20
2018-04-17T12:04:37.194Z,3.20
2018-04-17T12:07:05.436Z,2.80
2018-04-17T12:09:33.499Z,2.67
2018-04-17T12:12:01.724Z,2.80
2018-04-17T12:14:29.774Z,2.97
2018-04-17T12:16:58.576Z,3.03
2018-04-17T12:19:26.845Z,2.83
2018-04-17T12:21:55.872Z,2.90
2018-04-17T12:24:24.115Z,2.75
2018-04-17T12:26:52.082Z,3.12
2018-04-17T12:29:21.881Z,3.05
2018-04-17T12:31:50.138Z,3.03
2018-04-17T12:34:19.381Z,2.58
2018-04-17T12:36:48.675Z,2.72
2018-04-17T12:39:16.912Z,2.70
2018-04-17T12:41:44.925Z,2.70
2018-04-17T12:44:13.201Z,2.87
2018-04-17T12:46:42.144Z,2.60
2018-04-17T12:49:10.214Z,2.45
2018-04-17T12:51:38.518Z,3.10
2018-04-17T12:54:06.693Z,3.08
2018-04-17T12:56:35.405Z,3.33
2018-04-17T12:59:03.638Z,3.40
2018-04-17T13:01:32.678Z,2.95
2018-04-17T13:04:00.911Z,2.87
2018-04-17T13:06:29.054Z,2.97
2018-04-17T13:08:57.722Z,3.00
2018-04-17T13:11:26.565Z,3.00
2018-04-17T13:13:54.627Z,3.00
2018-04-17T13:16:22.826Z,2.57
2018-04-17T13:18:51.154Z,2.73
2018-04-17T13:21:19.537Z,2.50
2018-04-17T13:23:47.835Z,2.73
2018-04-17T13:26:16.003Z,2.53
2018-04-17T13:28:44.766Z,2.30
2018-04-17T13:31:12.955Z,2.70
2018-04-17T13:33:41.151Z,2.10
2018-04-17T13:36:09.457Z,1.90
2018-04-17T13:38:37.688Z,2.20
2018-04-17T13:41:05.935Z,2.10
2018-04-17T13:43:34.145Z,2.50
2018-04-17T13:46:02.184Z,2.20
2018-04-17T13:48:30.205Z,2.10
2018-04-17T13:50:58.502Z,2.03
2018-04-17T13:53:26.744Z,2.30
2018-04-17T13:55:54.991Z,2.00
2018-04-17T13:58:23.776Z,2.17
2018-04-17T14:00:51.818Z,2.30
2018-04-17T14:03:19.987Z,1.70
2018-04-17T14:05:48.257Z,2.00
2018-04-17T14:08:16.323Z,1.80
2018-04-17T14:10:45.188Z,2.42
2018-04-17T14:13:13.403Z,2.08
2018-04-17T14:15:42.301Z,1.90
2018-04-17T14:18:10.543Z,1.70
2018-04-17T14:20:38.591Z,1.50
2018-04-17T14:23:06.773Z,1.90
2018-04-17T14:25:34.712Z,1.80
2018-04-17T14:28:02.925Z,1.60
2018-04-17T14:30:31.954Z,1.90
2018-04-17T14:33:00.120Z,1.70
2018-04-17T14:35:29.028Z,1.73
2018-04-17T14:37:57.633Z,2.43
2018-04-17T14:40:25.827Z,2.27
2018-04-17T14:42:54.544Z,2.40
2018-04-17T14:45:22.788Z,2.20
2018-04-17T14:47:50.934Z,2.33
2018-04-17T14:50:19.018Z,2.30
2018-04-17T14:52:47.260Z,2.40
2018-04-17T14:55:15.487Z,2.23
2018-04-17T14:57:44.244Z,2.40
2018-04-17T15:00:12.632Z,2.10
2018-04-17T15:02:40.754Z,2.30
2018-04-17T15:05:08.923Z,2.00
2018-04-17T15:07:37.164Z,2.10
2018-04-17T15:10:05.208Z,2.53
2018-04-17T15:12:33.453Z,2.33
2018-04-17T15:15:01.649Z,2.40
2018-04-17T15:17:29.883Z,2.63
2018-04-17T15:19:58.179Z,2.23
2018-04-17T15:22:26.421Z,2.40
2018-04-17T15:24:54.387Z,2.60
2018-04-17T15:27:23.157Z,2.70
2018-04-17T15:29:51.345Z,2.57
2018-04-17T15:32:19.585Z,2.27
2018-04-17T15:34:47.757Z,2.33
2018-04-17T15:37:16.599Z,1.97
2018-04-17T15:39:45.642Z,2.10
2018-04-17T15:42:13.889Z,2.13
2018-04-17T15:47:16.905Z,1.90
2018-04-17T15:49:45.149Z,2.23
2018-04-17T15:52:13.328Z,2.20
2018-04-17T15:54:42.171Z,2.07
2018-04-17T15:57:10.415Z,1.80
2018-04-17T15:59:38.707Z,1.97
2018-04-17T16:02:06.950Z,2.00
2018-04-17T16:04:35.096Z,2.00
2018-04-17T16:07:03.184Z,2.10
2018-04-17T16:09:31.384Z,2.20
2018-04-17T16:11:59.398Z,2.40
2018-04-17T16:14:28.259Z,2.20
2018-04-17T16:16:56.554Z,2.43
2018-04-17T16:19:24.805Z,2.47
2018-04-17T16:21:53.239Z,2.10
2018-04-17T16:24:21.434Z,2.70
2018-04-17T16:26:49.474Z,2.23
2018-04-17T16:29:17.820Z,2.10
2018-04-17T16:31:45.960Z,2.07
2018-04-17T16:34:13.975Z,2.20
2018-04-17T16:36:42.147Z,2.30
2018-04-17T16:39:10.336Z,2.07
2018-04-17T16:41:38.632Z,2.07
2018-04-17T16:44:06.680Z,2.30
2018-04-17T16:46:35.707Z,2.47
2018-04-17T16:49:03.879Z,2.50
2018-04-17T16:51:32.555Z,2.00
2018-04-17T16:54:00.739Z,2.03
2018-04-17T16:56:28.806Z,2.10
2018-04-17T16:58:57.902Z,2.27
2018-04-17T17:01:26.044Z,2.20
2018-04-17T17:03:54.190Z,1.80
2018-04-17T17:06:22.330Z,2.13
2018-04-17T17:08:51.020Z,2.13
2018-04-17T17:11:19.315Z,2.43
2018-04-17T17:13:48.342Z,4.77
2018-04-17T17:16:17.750Z,3.50
2018-04-17T17:18:45.938Z,4.00
2018-04-17T17:21:14.781Z,2.67
2018-04-17T17:23:43.085Z,2.70
2018-04-17T17:26:11.713Z,1.90
2018-04-17T17:28:39.957Z,1.90
2018-04-17T17:31:08.198Z,2.17
2018-04-17T17:33:36.368Z,1.60
2018-04-17T17:36:05.410Z,1.90
2018-04-17T17:38:33.517Z,2.07
2018-04-17T17:41:02.544Z,1.70
2018-04-17T17:43:30.786Z,1.60
2018-04-17T17:45:59.029Z,2.17
2018-04-17T17:48:27.272Z,2.10
2018-04-17T17:50:55.472Z,2.20
2018-04-17T17:53:23.682Z,2.40
2018-04-17T17:55:52.727Z,2.20
2018-04-17T17:58:21.027Z,2.30
2018-04-17T18:00:49.270Z,2.00
2018-04-17T18:03:17.452Z,1.90
2018-04-17T18:05:46.346Z,2.00
2018-04-17T18:08:14.586Z,2.40
2018-04-17T18:10:42.829Z,2.10
2018-04-17T18:13:10.805Z,2.00
2018-04-17T18:15:39.843Z,2.33
2018-04-17T18:18:08.858Z,2.90
2018-04-17T18:20:37.773Z,3.00
2018-04-17T18:23:05.866Z,3.27
2018-04-17T18:25:33.814Z,3.03
2018-04-17T18:28:02.051Z,3.00
2018-04-17T18:30:30.293Z,3.20
2018-04-17T18:32:58.540Z,3.37
2018-04-17T18:35:26.778Z,3.50
2018-04-17T18:37:55.020Z,3.80
2018-04-17T18:40:23.273Z,3.60
2018-04-17T18:42:51.356Z,3.60
2018-04-17T18:45:19.498Z,3.47
2018-04-17T18:47:47.646Z,3.70
2018-04-17T18:50:15.882Z,4.03
2018-04-17T18:52:44.136Z,3.90
2018-04-17T18:55:13.091Z,3.33
2018-04-17T18:57:42.204Z,3.30
2018-04-17T19:00:10.325Z,4.10
2018-04-17T19:02:38.620Z,3.90
2018-04-17T19:05:07.070Z,4.33
2018-04-17T19:07:35.101Z,5.50
2018-04-17T19:10:03.345Z,6.00
2018-04-17T19:12:31.403Z,5.33
2018-04-17T19:14:59.682Z,4.80
2018-04-17T19:17:27.696Z,5.20
2018-04-17T19:19:55.731Z,4.43
2018-04-17T19:22:23.805Z,4.20
2018-04-17T19:24:51.823Z,4.27
2018-04-17T19:27:20.107Z,4.53
2018-04-17T19:29:48.130Z,4.63
2018-04-17T19:32:16.299Z,4.50
2018-04-17T19:34:44.593Z,5.27
2018-04-17T19:37:12.885Z,5.37
2018-04-17T19:39:41.123Z,5.20
2018-04-17T19:42:09.635Z,4.60
2018-04-17T19:44:38.299Z,4.40
2018-04-17T19:47:06.303Z,4.50
2018-04-17T19:49:35.492Z,4.63
2018-04-17T19:52:03.709Z,4.90
2018-04-17T19:54:32.330Z,4.57
2018-04-17T19:57:00.592Z,4.30
2018-04-17T19:59:28.829Z,4.70
2018-04-17T20:01:57.016Z,3.93
2018-04-17T20:04:25.770Z,4.63
2018-04-17T20:06:53.968Z,3.97
2018-04-17T20:09:22.203Z,4.33
2018-04-17T20:11:50.327Z,4.63
2018-04-17T20:14:18.425Z,4.40
2018-04-17T20:16:46.726Z,4.60
2018-04-17T20:19:14.963Z,4.90
2018-04-17T20:21:43.207Z,4.93
2018-04-17T20:24:11.388Z,4.87
2018-04-17T20:26:40.657Z,4.60
2018-04-17T20:29:09.100Z,5.03
2018-04-17T20:31:37.333Z,4.73
2018-04-17T20:34:05.510Z,5.03
2018-04-17T20:36:33.787Z,5.70
2018-04-17T20:39:02.242Z,6.00
2018-04-17T20:41:30.345Z,5.67
2018-04-17T20:43:59.157Z,5.30
2018-04-17T20:46:27.674Z,4.80
2018-04-17T20:48:55.963Z,5.10
2018-04-17T20:51:25.059Z,5.00
2018-04-17T20:53:53.307Z,4.93
2018-04-17T20:56:21.548Z,5.63
2018-04-17T20:58:50.130Z,5.10
2018-04-17T21:01:18.435Z,5.43
2018-04-17T21:03:47.706Z,5.40
2018-04-17T21:06:15.895Z,5.33
2018-04-17T21:08:44.099Z,5.50
2018-04-17T21:11:12.773Z,6.40
2018-04-17T21:13:41.158Z,5.80
2018-04-17T21:16:09.401Z,6.20
2018-04-17T21:18:37.644Z,6.40
2018-04-17T21:21:06.136Z,6.37
2018-04-17T21:23:34.288Z,7.03
2018-04-17T21:26:02.220Z,6.80
2018-04-17T21:28:30.235Z,6.90
2018-04-17T21:30:58.514Z,6.20
2018-04-17T21:33:26.566Z,6.77
2018-04-17T21:35:54.814Z,6.87
2018-04-17T21:38:23.671Z,7.13
2018-04-17T21:40:51.878Z,8.23
2018-04-17T21:43:20.076Z,7.57
2018-04-17T21:45:48.952Z,8.33
2018-04-17T21:48:17.249Z,7.70
2018-04-17T21:50:45.443Z,8.37
2018-04-17T21:53:13.911Z,9.50
2018-04-17T21:55:42.315Z,8.73
2018-04-17T21:58:10.422Z,8.57
2018-04-17T22:00:38.507Z,9.10
2018-04-17T22:03:06.810Z,8.67
2018-04-17T22:05:34.911Z,7.60
2018-04-17T22:08:03.063Z,8.37
2018-04-17T22:10:32.222Z,8.70
2018-04-17T22:13:00.510Z,7.70
2018-04-17T22:15:29.245Z,7.30
2018-04-17T22:17:57.478Z,7.03
2018-04-17T22:20:25.491Z,6.93
2018-04-17T22:22:53.673Z,6.80
2018-04-17T22:25:21.958Z,6.40
2018-04-17T22:27:50.252Z,6.10
2018-04-17T22:30:18.803Z,6.43
2018-04-17T22:32:47.916Z,6.30
2018-04-17T22:35:16.233Z,6.43
2018-04-17T22:37:44.520Z,6.17
2018-04-17T22:40:13.565Z,6.60
2018-04-17T22:42:42.612Z,6.03
2018-04-17T22:45:11.101Z,6.30
2018-04-17T22:47:39.667Z,6.63
2018-04-17T22:50:07.971Z,6.30
2018-04-17T22:52:36.396Z,7.00
2018-04-17T22:55:04.569Z,6.60
2018-04-17T22:57:32.867Z,7.10
2018-04-17T23:00:01.139Z,6.70
2018-04-17T23:02:29.281Z,6.43
2018-04-17T23:04:57.360Z,7.00
2018-04-17T23:07:25.798Z,6.97
2018-04-17T23:09:54.893Z,6.93
2018-04-17T23:12:23.135Z,7.57
2018-04-17T23:14:51.179Z,6.53
2018-04-17T23:17:19.370Z,8.03
2018-04-17T23:19:47.863Z,7.03
2018-04-17T23:22:16.255Z,7.17
2018-04-17T23:24:44.545Z,6.80
2018-04-17T23:27:12.845Z,6.40
2018-04-17T23:29:41.968Z,5.97
2018-04-17T23:32:10.255Z,6.90
2018-04-17T23:34:38.496Z,7.20
2018-04-17T23:37:06.636Z,6.13
2018-04-17T23:39:34.985Z,7.10
2018-04-17T23:42:03.230Z,7.10
2018-04-17T23:44:32.189Z,6.17
2018-04-17T23:47:01.228Z,6.33
2018-04-17T23:49:29.524Z,6.20
2018-04-17T23:51:58.112Z,5.97
2018-04-17T23:54:26.409Z,6.87
2018-04-17T23:56:54.656Z,7.00
2018-04-17T23:59:23.288Z,6.50
